Terminal Aerodrome Forecast
Issued by NWS

Home | Current Version | Previous Version | Text Only | Print | Product List | Glossary On
Versions: 1 2 3 4 5 6 7 8 9 10 11 12 13 14 15 16 17 18
000
FTAK31 PAJN 161700
TAFAYA
TAF
PAYA 161726Z 1618/1718 00000KT P6SM SCT020 BKN025
     FM162000 VRB03KT P6SM VCSH SCT015 BKN050
     FM170300 00000KT P6SM OVC050
     FM171600 11004KT P6SM VCSH SCT025 OVC050
      AMD LTD TO CLD VIS AND WIND 1701/1710=

USA.gov is the U.S. government's official web portal to all federal, state and local government web resources and services.